Terminal Aerodrome Forecast
Issued by NWS Shreveport, LA

Home | Current Version | Previous Version | Text Only | Print | Product List | Glossary On
Versions: 1 2 3 4 5 6 7 8 9 10 11 12 13 14 15 16 17 18 19 20 21 22 23 24
405
FTUS44 KSHV 200521
TAFSHV
TAF
KSHV 200521Z 2006/2106 19007KT P6SM BKN015
      TEMPO 2006/2010 3SM BR SCT010
     FM201000 20007KT 5SM BR BKN010
      TEMPO 2010/2014 1SM BR OVC001
     FM201400 21009KT P6SM SCT015 SCT250
     FM201800 22012G18KT P6SM BKN250
     FM210000 18007KT P6SM SCT100 BKN250=

USA.gov is the U.S. government's official web portal to all federal, state and local government web resources and services.